Time;durP1;ratioP1;P1;durP2;ratioP2;P2;SDS_P1;SDS_P2;PMS_P1;PMS_P2;Temp;Humidity;BMP_temperature;BMP_pressure;BME280_temperature;BME280_humidity;BME280_pressure;Samples;Min_cycle;Max_cycle;Signal;HPM_P1;HPM_P2
2021/11/11 00:00:01;;;;;;;29.63;14.40;;;;;;;1.68;61.54;102492.42;126352;1097;104140;-81
2021/11/11 00:02:31;;;;;;;27.97;14.50;;;;;;;1.68;61.68;102497.59;126311;1098;104294;-80
2021/11/11 00:05:02;;;;;;;29.17;15.30;;;;;;;1.62;61.72;102494.37;126359;1099;104108;-81
2021/11/11 00:07:33;;;;;;;29.70;14.63;;;;;;;1.57;61.53;102496.52;126352;1099;104159;-80
2021/11/11 00:10:06;;;;;;;31.83;16.23;;;;;;;1.58;61.72;102492.25;126284;1099;104166;-81
2021/11/11 00:12:36;;;;;;;30.03;14.17;;;;;;;1.57;62.27;102480.98;126220;1099;104149;-80
2021/11/11 00:15:11;;;;;;;29.17;14.33;;;;;;;1.57;61.94;102482.64;126378;1099;104146;-79
2021/11/11 00:17:42;;;;;;;31.03;15.77;;;;;;;1.56;61.77;102475.66;126346;1099;104252;-80
2021/11/11 00:20:17;;;;;;;29.93;15.60;;;;;;;1.57;61.92;102470.64;126324;1097;104187;-81
2021/11/11 00:22:49;;;;;;;31.80;15.13;;;;;;;1.59;62.23;102468.17;126316;1099;104236;-80
2021/11/11 00:25:22;;;;;;;31.80;14.93;;;;;;;1.59;62.12;102463.94;126372;1099;104160;-80
2021/11/11 00:27:53;;;;;;;34.45;15.72;;;;;;;1.59;62.14;102465.59;126394;1098;104224;-80
2021/11/11 00:30:25;;;;;;;32.70;15.30;;;;;;;1.59;61.72;102458.77;126338;1099;104236;-80
2021/11/11 00:32:56;;;;;;;29.83;15.37;;;;;;;1.58;62.05;102456.02;126349;1099;104188;-80
2021/11/11 00:35:29;;;;;;;32.37;16.03;;;;;;;1.56;61.86;102458.45;126426;1098;104181;-80
2021/11/11 00:38:01;;;;;;;34.57;16.77;;;;;;;1.54;62.40;102459.03;126386;1099;104881;-80
2021/11/11 00:40:33;;;;;;;31.63;15.23;;;;;;;1.50;62.06;102451.73;126343;1099;104178;-80
2021/11/11 00:43:05;;;;;;;34.37;16.60;;;;;;;1.46;61.94;102445.30;126333;1099;104156;-80
2021/11/11 00:45:37;;;;;;;31.87;15.93;;;;;;;1.47;62.16;102443.66;126355;1099;104256;-80
2021/11/11 00:48:09;;;;;;;30.00;15.70;;;;;;;1.46;62.45;102444.40;126343;1099;104152;-80
2021/11/11 00:50:40;;;;;;;32.83;14.90;;;;;;;1.43;62.74;102437.22;126369;1099;104229;-80
2021/11/11 00:53:10;;;;;;;27.27;13.90;;;;;;;1.39;62.18;102437.69;126358;1099;104286;-80
2021/11/11 00:55:41;;;;;;;31.40;14.97;;;;;;;1.36;62.79;102429.61;126355;1099;104470;-80
2021/11/11 00:58:19;;;;;;;28.10;15.47;;;;;;;1.34;62.49;102426.86;126343;1099;104258;-80
2021/11/11 01:00:50;;;;;;;26.97;14.07;;;;;;;1.33;62.56;102425.02;126312;1099;104245;-80
2021/11/11 01:03:25;;;;;;;32.23;15.80;;;;;;;1.33;62.54;102422.44;126269;1099;104372;-80
2021/11/11 01:05:56;;;;;;;28.03;13.80;;;;;;;1.34;62.59;102419.10;126364;1099;104288;-80
2021/11/11 01:08:30;;;;;;;32.60;14.93;;;;;;;1.32;62.76;102414.52;126200;1099;104166;-80
2021/11/11 01:11:03;;;;;;;28.90;14.00;;;;;;;1.29;62.93;102411.61;126297;1099;104197;-80
2021/11/11 01:13:34;;;;;;;27.30;13.53;;;;;;;1.28;62.73;102413.30;126301;1099;104143;-80
2021/11/11 01:16:05;;;;;;;30.00;14.70;;;;;;;1.27;62.69;102414.04;126423;1099;104294;-80
2021/11/11 01:18:36;;;;;;;27.87;14.37;;;;;;;1.28;62.65;102408.12;126371;1099;104380;-81
2021/11/11 01:21:08;;;;;;;26.90;13.50;;;;;;;1.30;62.68;102413.45;126340;1099;104181;-81
2021/11/11 01:23:39;;;;;;;28.90;14.37;;;;;;;1.31;62.82;102413.61;126336;1099;104210;-80
2021/11/11 01:26:09;;;;;;;28.13;12.70;;;;;;;1.34;63.05;102412.98;126315;1099;104147;-80
2021/11/11 01:28:42;;;;;;;26.43;12.70;;;;;;;1.36;62.76;102401.16;126331;1099;104246;-80
2021/11/11 01:31:15;;;;;;;24.85;11.85;;;;;;;1.35;63.00;102405.39;126374;1099;104175;-80
2021/11/11 01:33:49;;;;;;;30.65;15.00;;;;;;;1.33;63.19;102400.84;126238;1098;104248;-80
2021/11/11 01:36:20;;;;;;;26.40;13.20;;;;;;;1.33;63.11;102391.39;126408;1099;104178;-80
2021/11/11 01:38:57;;;;;;;25.37;12.90;;;;;;;1.35;63.37;102389.87;125401;1099;104187;-80
2021/11/11 01:41:43;;;;;;;26.10;11.90;;;;;;;1.35;63.01;102387.28;126348;1098;104577;-80
2021/11/11 01:44:15;;;;;;;25.23;12.33;;;;;;;1.33;63.29;102369.80;126316;1099;104153;-80
2021/11/11 01:46:47;;;;;;;28.20;12.80;;;;;;;1.33;63.28;102381.05;126327;1098;104245;-80
2021/11/11 01:49:18;;;;;;;25.97;12.03;;;;;;;1.34;63.32;102375.13;126241;1099;104156;-80
2021/11/11 01:51:48;;;;;;;24.97;11.63;;;;;;;1.33;63.58;102375.87;126258;1099;104140;-80
2021/11/11 01:54:21;;;;;;;24.53;11.30;;;;;;;1.35;63.38;102374.34;126237;1099;104147;-79
2021/11/11 01:56:58;;;;;;;23.83;11.13;;;;;;;1.37;64.11;102371.92;126287;1099;104187;-80
2021/11/11 01:59:33;;;;;;;21.10;10.53;;;;;;;1.36;63.29;102368.43;126365;1099;104229;-80
2021/11/11 02:02:08;;;;;;;24.17;12.00;;;;;;;1.36;63.64;102360.67;126284;1099;104153;-79
2021/11/11 02:04:44;;;;;;;23.13;11.13;;;;;;;1.36;63.49;102365.84;126218;1099;104255;-80
2021/11/11 02:07:15;;;;;;;25.17;11.57;;;;;;;1.35;64.07;102358.83;126282;1099;104155;-80
2021/11/11 02:09:53;;;;;;;21.43;10.57;;;;;;;1.37;63.43;102356.40;126234;1099;104237;-79
2021/11/11 02:12:32;;;;;;;23.77;10.53;;;;;;;1.37;63.63;102359.92;126125;1099;104316;-79
2021/11/11 02:15:07;;;;;;;25.07;10.93;;;;;;;1.38;63.83;102355.66;126337;1099;104146;-80
2021/11/11 02:17:38;;;;;;;23.17;10.80;;;;;;;1.38;63.81;102356.56;126284;1099;104176;-80
2021/11/11 02:20:17;;;;;;;23.77;10.20;;;;;;;1.37;64.44;102352.16;125403;1099;104230;-79
2021/11/11 02:23:05;;;;;;;20.67;10.43;;;;;;;1.35;64.27;102348.48;126251;1099;104207;-80
2021/11/11 02:25:53;;;;;;;22.50;10.80;;;;;;;1.35;64.36;102357.92;126179;1099;108215;-80
2021/11/11 02:28:25;;;;;;;22.73;10.53;;;;;;;1.33;64.24;102354.28;126290;1098;104165;-79
2021/11/11 02:30:56;;;;;;;22.77;10.73;;;;;;;1.33;64.20;102349.11;126344;1099;104185;-79
2021/11/11 02:33:37;;;;;;;20.13;10.47;;;;;;;1.31;64.35;102343.77;126370;1099;104171;-79
2021/11/11 02:36:09;;;;;;;22.07;10.57;;;;;;;1.29;64.41;102341.78;126263;1099;119018;-79
2021/11/11 02:38:40;;;;;;;21.10;10.00;;;;;;;1.33;64.12;102329.31;126393;1099;104185;-79
2021/11/11 02:41:11;;;;;;;21.23;9.50;;;;;;;1.33;64.02;102331.00;126408;1099;104178;-80
2021/11/11 02:43:42;;;;;;;22.57;9.93;;;;;;;1.31;64.71;102320.50;126367;1099;104155;-79
2021/11/11 02:46:18;;;;;;;21.30;10.03;;;;;;;1.31;64.22;102310.16;126267;1099;104252;-79
2021/11/11 02:48:48;;;;;;;21.95;10.40;;;;;;;1.29;64.10;102316.81;126240;1099;104156;-80
2021/11/11 02:51:19;;;;;;;22.30;10.67;;;;;;;1.29;64.53;102310.73;126251;1099;104153;-80
2021/11/11 02:53:52;;;;;;;20.53;9.30;;;;;;;1.30;64.30;102297.06;126256;1099;104230;-79
2021/11/11 02:56:24;;;;;;;22.25;10.50;;;;;;;1.31;64.45;102297.22;126352;1099;104184;-80
2021/11/11 02:58:55;;;;;;;21.73;9.67;;;;;;;1.34;64.53;102294.95;126403;1099;104150;-80
2021/11/11 03:01:26;;;;;;;21.77;9.90;;;;;;;1.36;64.50;102293.41;126328;1099;104316;-80
2021/11/11 03:03:57;;;;;;;21.13;9.93;;;;;;;1.41;63.90;102288.70;126338;1099;104251;-80
2021/11/11 03:06:29;;;;;;;22.20;9.37;;;;;;;1.42;64.99;102286.28;126250;1099;104229;-79
2021/11/11 03:09:01;;;;;;;20.40;9.53;;;;;;;1.43;64.58;102290.70;126294;1098;104178;-79
2021/11/11 03:11:32;;;;;;;21.27;9.17;;;;;;;1.44;64.95;102286.43;126267;1099;104175;-79
2021/11/11 03:14:08;;;;;;;18.60;9.10;;;;;;;1.44;64.88;102281.26;126368;1098;104300;-79
2021/11/11 03:16:40;;;;;;;17.90;8.37;;;;;;;1.44;65.16;102281.26;126289;1099;104306;-79
2021/11/11 03:19:10;;;;;;;17.30;8.57;;;;;;;1.42;65.25;102277.61;126298;1099;104312;-79
2021/11/11 03:21:44;;;;;;;17.63;8.10;;;;;;;1.41;65.03;102261.16;126378;1099;104181;-80
2021/11/11 03:24:15;;;;;;;15.93;7.83;;;;;;;1.40;65.54;102264.52;126257;1099;104217;-79
2021/11/11 03:26:45;;;;;;;20.37;8.30;;;;;;;1.41;65.11;102262.84;125458;1099;105559;-80
2021/11/11 03:29:16;;;;;;;18.50;8.63;;;;;;;1.42;65.67;102259.50;126227;1099;104178;-80
2021/11/11 03:31:51;;;;;;;15.17;7.27;;;;;;;1.45;65.40;102254.64;126240;1099;104166;-80
2021/11/11 03:34:23;;;;;;;18.73;8.17;;;;;;;1.48;65.67;102246.25;126203;1099;104149;-82
2021/11/11 03:36:56;;;;;;;18.90;8.33;;;;;;;1.50;65.61;102242.16;126171;1099;104249;-81
2021/11/11 03:39:27;;;;;;;19.50;8.05;;;;;;;1.51;65.38;102249.14;126232;1099;102102;-80
2021/11/11 03:41:58;;;;;;;19.13;8.40;;;;;;;1.51;65.52;102234.55;126233;1098;104477;-81
2021/11/11 03:44:30;;;;;;;17.03;7.77;;;;;;;1.52;65.07;102236.36;126248;1099;104299;-82
2021/11/11 03:47:03;;;;;;;15.87;7.87;;;;;;;1.56;65.37;102233.33;126164;1099;105164;-81
2021/11/11 03:49:37;;;;;;;17.23;8.53;;;;;;;1.58;65.55;102230.89;126285;1099;104146;-80
2021/11/11 03:52:10;;;;;;;15.88;7.62;;;;;;;1.58;65.99;102242.15;126215;1099;104185;-80
2021/11/11 03:54:41;;;;;;;18.70;8.23;;;;;;;1.58;65.27;102236.06;126212;1099;104400;-81
2021/11/11 03:57:12;;;;;;;20.60;8.63;;;;;;;1.55;65.54;102234.08;126286;1099;105489;-81
2021/11/11 03:59:43;;;;;;;18.97;7.90;;;;;;;1.56;66.23;102232.42;126365;1098;104291;-80
2021/11/11 04:02:14;;;;;;;18.07;8.47;;;;;;;1.54;65.51;102236.52;126353;1099;104257;-81
2021/11/11 04:04:45;;;;;;;18.50;8.03;;;;;;;1.55;66.01;102241.84;126335;1097;104299;-81
2021/11/11 04:07:17;;;;;;;15.90;7.63;;;;;;;1.56;66.45;102235.02;126260;1099;104434;-81
2021/11/11 04:09:49;;;;;;;17.83;7.97;;;;;;;1.56;66.24;102240.19;126370;1099;104255;-81
2021/11/11 04:12:20;;;;;;;16.87;7.80;;;;;;;1.57;66.63;102234.23;126371;1099;104322;-81
2021/11/11 04:14:51;;;;;;;18.83;7.60;;;;;;;1.57;66.44;102239.41;126389;1099;104281;-81
2021/11/11 04:17:23;;;;;;;19.03;7.60;;;;;;;1.57;65.97;102232.58;126302;1099;104306;-81
2021/11/11 04:19:54;;;;;;;17.57;7.57;;;;;;;1.58;66.03;102239.56;126370;1099;104262;-81
2021/11/11 04:22:25;;;;;;;15.53;7.27;;;;;;;1.57;66.12;102239.41;126346;1099;104143;-82
2021/11/11 04:24:57;;;;;;;19.10;7.90;;;;;;;1.55;66.50;102240.94;126351;1098;104149;-81
2021/11/11 04:27:32;;;;;;;19.13;8.67;;;;;;;1.55;66.48;102233.17;126321;1099;104220;-82
2021/11/11 04:30:13;;;;;;;17.97;8.33;;;;;;;1.54;66.24;102240.03;126175;1099;104146;-80
2021/11/11 04:32:45;;;;;;;16.87;7.90;;;;;;;1.56;65.95;102224.66;126172;1099;104322;-80
2021/11/11 04:35:15;;;;;;;19.63;8.80;;;;;;;1.61;66.32;102241.55;126267;1099;104187;-80
2021/11/11 04:37:56;;;;;;;18.70;8.63;;;;;;;1.65;66.60;102234.99;126225;1099;104156;-81
2021/11/11 04:40:48;;;;;;;18.43;8.77;;;;;;;1.67;66.25;102233.46;126345;1099;104146;-80
2021/11/11 04:49:10;;;;;;;23.95;9.55;;;;;;;1.64;66.66;102236.68;126126;1099;104702;-81
2021/11/11 05:05:17;;;;;;;21.25;9.75;;;;;;;1.66;66.82;102239.42;126333;1099;104142;-80
2021/11/11 05:07:50;;;;;;;20.50;9.20;;;;;;;1.66;67.08;102245.50;126311;1099;104195;-81
2021/11/11 05:10:22;;;;;;;22.37;9.17;;;;;;;1.65;66.80;102241.07;126245;1099;104143;-80
2021/11/11 05:12:56;;;;;;;21.77;9.50;;;;;;;1.65;67.05;102251.42;126232;1099;104510;-80
2021/11/11 05:15:29;;;;;;;25.23;9.75;;;;;;;1.67;66.44;102239.57;125406;1099;104296;-81
2021/11/11 05:18:02;;;;;;;22.80;9.90;;;;;;;1.69;66.67;102250.08;125987;1099;105577;-81
2021/11/11 05:20:35;;;;;;;22.80;10.80;;;;;;;1.68;66.86;102246.55;126033;1099;104251;-81
2021/11/11 05:23:08;;;;;;;27.67;13.13;;;;;;;1.69;66.68;102245.80;126012;1099;104363;-81
2021/11/11 05:25:40;;;;;;;29.97;12.87;;;;;;;1.70;66.85;102260.58;126136;1099;104181;-81
2021/11/11 05:28:11;;;;;;;30.67;13.50;;;;;;;1.68;67.23;102251.73;125568;1099;104144;-80
2021/11/11 05:30:43;;;;;;;36.27;14.77;;;;;;;1.67;66.81;102252.52;126256;1099;101861;-79
2021/11/11 05:33:15;;;;;;;34.50;13.43;;;;;;;1.68;66.89;102251.73;126239;1099;104689;-80
2021/11/11 05:35:47;;;;;;;29.80;14.07;;;;;;;1.69;66.90;102253.56;126258;1099;104203;-81
2021/11/11 05:38:20;;;;;;;35.28;12.68;;;;;;;1.72;66.82;102252.97;126123;1099;104289;-81
2021/11/11 05:40:51;;;;;;;32.47;13.43;;;;;;;1.77;66.84;102263.00;125356;1099;104175;-80
2021/11/11 05:43:26;;;;;;;32.87;13.83;;;;;;;1.82;67.18;102253.09;126174;1099;104172;-81
2021/11/11 05:45:57;;;;;;;28.00;12.67;;;;;;;1.86;66.96;102267.28;126217;1098;104322;-80
2021/11/11 05:48:29;;;;;;;36.60;14.23;;;;;;;1.88;67.29;102269.23;126239;1099;104150;-80
2021/11/11 05:51:02;;;;;;;26.60;12.50;;;;;;;1.89;67.43;102271.08;126146;1099;104270;-81
2021/11/11 05:53:34;;;;;;;27.43;12.40;;;;;;;1.90;67.17;102271.98;126242;1098;104137;-80
2021/11/11 05:56:06;;;;;;;30.17;13.07;;;;;;;1.95;67.65;102276.86;126182;1099;104271;-80
2021/11/11 05:58:40;;;;;;;23.80;11.40;;;;;;;2.04;67.31;102265.57;126200;1099;104259;-80
2021/11/11 06:01:11;;;;;;;27.30;11.10;;;;;;;2.11;67.08;102270.60;126165;1099;104273;-80
2021/11/11 06:03:48;;;;;;;21.93;11.20;;;;;;;2.21;67.34;102270.72;126208;1099;104284;-81
2021/11/11 06:06:20;;;;;;;27.50;12.80;;;;;;;2.29;67.33;102266.28;126177;1099;104153;-80
2021/11/11 06:08:51;;;;;;;29.53;12.73;;;;;;;2.37;67.51;102269.63;126202;1099;104184;-81
2021/11/11 06:11:22;;;;;;;25.00;11.43;;;;;;;2.45;67.54;102277.38;126197;1099;104184;-81
2021/11/11 06:13:53;;;;;;;23.80;11.00;;;;;;;2.54;67.61;102258.30;126282;1099;104203;-82
2021/11/11 06:16:26;;;;;;;24.57;10.83;;;;;;;2.62;67.68;102265.16;126269;1099;104259;-80
2021/11/11 06:19:01;;;;;;;23.50;10.20;;;;;;;2.74;67.19;102263.70;126031;1099;104192;-81
2021/11/11 06:21:32;;;;;;;23.30;10.87;;;;;;;2.90;67.54;102244.41;126230;1099;104191;-81
2021/11/11 06:24:04;;;;;;;26.60;11.03;;;;;;;3.04;67.80;102250.14;126287;1099;104156;-81
2021/11/11 06:26:35;;;;;;;25.87;10.83;;;;;;;3.17;67.60;102247.02;126281;1099;104239;-82
2021/11/11 06:29:08;;;;;;;21.97;10.20;;;;;;;3.30;67.70;102250.75;125917;1099;105608;-79
2021/11/11 06:31:41;;;;;;;23.63;9.87;;;;;;;3.40;67.21;102240.47;126251;1098;104178;-79
2021/11/11 06:34:22;;;;;;;23.67;10.67;;;;;;;3.48;67.73;102234.29;126174;1099;104168;-80
2021/11/11 06:36:53;;;;;;;27.00;12.07;;;;;;;3.58;66.97;102236.03;126012;1099;104281;-79
2021/11/11 06:39:31;;;;;;;25.60;12.33;;;;;;;3.68;68.16;102230.02;125911;1099;104386;-80
2021/11/11 06:42:04;;;;;;;26.27;11.27;;;;;;;3.73;67.70;102231.34;126113;1099;104165;-81
2021/11/11 06:44:42;;;;;;;24.30;10.83;;;;;;;3.77;67.75;102229.17;126253;1099;104278;-81
2021/11/11 06:47:14;;;;;;;23.45;10.55;;;;;;;3.83;67.53;102235.67;126194;1099;104573;-80
2021/11/11 06:50:17;;;;;;;22.80;11.07;;;;;;;3.87;67.88;102235.19;126119;1099;104245;-80
2021/11/11 06:52:50;;;;;;;22.97;10.33;;;;;;;3.96;67.11;102231.73;126100;1097;104226;-80
2021/11/11 06:55:39;;;;;;;27.40;12.43;;;;;;;4.04;67.16;102222.03;126102;1099;104178;-81
2021/11/11 06:58:43;;;;;;;25.40;11.03;;;;;;;4.11;67.71;102220.88;126222;1099;104258;-81
2021/11/11 07:01:21;;;;;;;20.73;10.07;;;;;;;4.19;67.97;102212.11;126161;1099;104208;-79
2021/11/11 07:03:53;;;;;;;22.23;8.90;;;;;;;4.24;67.20;102213.41;126117;1099;104159;-80
2021/11/11 07:06:25;;;;;;;21.80;9.83;;;;;;;4.30;67.67;102218.22;126066;1099;104820;-80
2021/11/11 07:08:56;;;;;;;19.57;8.70;;;;;;;4.37;68.17;102211.91;126073;1099;104248;-79
2021/11/11 07:11:31;;;;;;;17.27;7.80;;;;;;;4.43;67.65;102213.34;126158;1099;104153;-80
2021/11/11 07:14:10;;;;;;;13.63;6.47;;;;;;;4.52;67.95;102215.85;126247;1099;104246;-80
2021/11/11 07:16:45;;;;;;;16.27;7.60;;;;;;;4.57;67.60;102205.85;126061;1098;104186;-82
2021/11/11 07:19:19;;;;;;;19.05;8.10;;;;;;;4.67;67.98;102211.05;126058;1099;104229;-82
2021/11/11 07:21:53;;;;;;;20.10;8.37;;;;;;;4.75;67.44;102203.92;125978;1099;108329;-81
2021/11/11 07:24:27;;;;;;;19.70;8.53;;;;;;;4.82;67.51;102209.78;126238;1099;104213;-80
2021/11/11 07:27:03;;;;;;;14.73;7.23;;;;;;;4.90;68.05;102200.04;126240;1099;104676;-81
2021/11/11 07:29:37;;;;;;;15.47;7.10;;;;;;;4.98;67.58;102209.40;126302;1099;104194;-81
2021/11/11 07:32:12;;;;;;;12.73;6.93;;;;;;;5.09;67.86;102199.91;126101;1099;119105;-80
2021/11/11 07:34:44;;;;;;;14.27;7.20;;;;;;;5.19;67.63;102192.11;126133;1099;104149;-79
2021/11/11 07:37:18;;;;;;;14.53;6.63;;;;;;;5.28;67.71;102194.56;126199;1099;104171;-80
2021/11/11 07:39:53;;;;;;;15.67;6.87;;;;;;;5.38;67.60;102186.75;126133;1099;104185;-79
2021/11/11 07:42:25;;;;;;;17.30;7.27;;;;;;;5.47;67.52;102180.48;126120;1099;104714;-81
2021/11/11 07:45:03;;;;;;;19.50;7.90;;;;;;;5.57;67.49;102175.27;126122;1099;104246;-80
2021/11/11 07:47:39;;;;;;;16.52;7.35;;;;;;;5.66;67.57;102181.23;126213;1099;104155;-81
2021/11/11 07:50:13;;;;;;;13.53;6.67;;;;;;;5.74;67.79;102163.63;126143;1099;104201;-81
2021/11/11 07:52:45;;;;;;;13.70;6.40;;;;;;;5.87;67.81;102168.14;125924;1099;104698;-79
2021/11/11 07:55:27;;;;;;;15.43;6.65;;;;;;;5.98;67.40;102163.84;125856;1099;104194;-81
2021/11/11 07:58:02;;;;;;;19.30;7.13;;;;;;;6.11;67.46;102159.73;125869;1097;104188;-79
2021/11/11 08:00:39;;;;;;;15.77;6.93;;;;;;;6.26;67.53;102149.64;125926;1099;104259;-80
2021/11/11 08:03:15;;;;;;;14.47;6.97;;;;;;;6.39;67.22;102143.69;126180;1099;104259;-82
2021/11/11 08:05:56;;;;;;;16.57;6.80;;;;;;;6.50;67.17;102138.39;126259;1099;104204;-81
2021/11/11 08:08:35;;;;;;;14.13;5.73;;;;;;;6.60;67.21;102141.83;126280;1099;104299;-81
2021/11/11 08:11:08;;;;;;;13.63;5.93;;;;;;;6.72;67.09;102139.28;126136;1099;104178;-81
2021/11/11 08:13:41;;;;;;;14.20;6.27;;;;;;;6.86;66.44;102137.73;126270;1099;104137;-76
2021/11/11 08:16:12;;;;;;;13.33;5.30;;;;;;;6.99;66.45;102131.75;126125;1099;104315;-80
2021/11/11 08:18:45;;;;;;;13.70;5.00;;;;;;;7.11;64.24;102131.78;126165;1099;104443;-81
2021/11/11 08:21:17;;;;;;;8.07;4.60;;;;;;;7.22;63.77;102130.89;126045;1099;104150;-79
2021/11/11 08:23:49;;;;;;;10.40;4.80;;;;;;;7.34;65.52;102120.47;125932;1099;104208;-79
2021/11/11 08:26:22;;;;;;;12.63;5.20;;;;;;;7.46;65.39;102130.89;125931;1099;104345;-79
2021/11/11 08:28:56;;;;;;;9.18;4.33;;;;;;;7.52;64.33;102124.41;126024;1098;104281;-79
2021/11/11 08:31:28;;;;;;;9.90;4.20;;;;;;;7.62;64.64;102112.03;125899;1099;105431;-78
2021/11/11 08:33:59;;;;;;;11.70;4.57;;;;;;;7.68;64.31;102120.32;125949;1098;104130;-78
2021/11/11 08:36:37;;;;;;;10.43;4.90;;;;;;;7.78;64.22;102112.38;126020;1098;104579;-79
2021/11/11 08:39:07;;;;;;;10.73;4.33;;;;;;;7.86;63.91;102112.92;126042;1099;104150;-80
2021/11/11 08:41:42;;;;;;;12.57;4.83;;;;;;;7.95;63.48;102110.05;126018;1099;104247;-80
2021/11/11 08:44:17;;;;;;;10.40;4.77;;;;;;;8.04;64.43;102114.26;126054;1099;104293;-78
2021/11/11 08:46:55;;;;;;;10.40;4.80;;;;;;;8.12;64.14;102112.19;125955;1099;104290;-81
2021/11/11 08:49:27;;;;;;;10.50;4.83;;;;;;;8.20;63.57;102111.02;125919;1099;104296;-79
2021/11/11 08:51:57;;;;;;;8.07;4.33;;;;;;;8.26;63.42;102108.84;125865;1099;104328;-80
2021/11/11 08:54:28;;;;;;;8.70;4.73;;;;;;;8.35;63.70;102105.98;126131;1099;104216;-78
2021/11/11 08:56:59;;;;;;;10.43;4.63;;;;;;;8.43;64.13;102110.06;126038;1099;104181;-77
2021/11/11 08:59:30;;;;;;;8.77;4.37;;;;;;;8.49;63.92;102101.72;126189;1099;104417;-80
2021/11/11 09:02:01;;;;;;;10.80;4.20;;;;;;;8.57;63.91;102090.10;126080;1099;104254;-80
2021/11/11 09:04:32;;;;;;;10.27;4.47;;;;;;;8.63;62.57;102090.52;125294;1099;104287;-80
2021/11/11 09:07:04;;;;;;;9.97;4.70;;;;;;;8.73;62.59;102088.54;125293;1099;104302;-81
2021/11/11 09:09:37;;;;;;;7.67;4.10;;;;;;;8.77;63.04;102081.00;125991;1099;104245;-80
2021/11/11 09:12:09;;;;;;;7.15;4.05;;;;;;;8.83;60.93;102080.49;126006;1099;104466;-79
2021/11/11 09:14:41;;;;;;;13.87;4.57;;;;;;;8.89;61.68;102080.91;126166;1099;104217;-80
2021/11/11 09:17:19;;;;;;;10.13;4.43;;;;;;;8.93;61.98;102088.18;126169;1099;104328;-80
2021/11/11 09:19:52;;;;;;;13.63;4.20;;;;;;;8.93;61.31;102067.23;126146;1098;104312;-78
2021/11/11 09:22:23;;;;;;;10.40;3.93;;;;;;;8.99;61.97;102059.80;126134;1098;104175;-78
2021/11/11 09:24:54;;;;;;;12.67;4.50;;;;;;;9.09;62.11;102068.27;126214;1099;104283;-78
2021/11/11 09:27:25;;;;;;;11.20;4.03;;;;;;;9.17;62.14;102060.09;126168;1099;104219;-78
2021/11/11 09:29:56;;;;;;;11.70;4.57;;;;;;;9.22;61.64;102049.03;126228;1099;104277;-80
2021/11/11 09:32:29;;;;;;;8.97;4.40;;;;;;;9.23;60.54;102045.61;126063;1098;104347;-80
2021/11/11 09:35:01;;;;;;;7.93;4.10;;;;;;;9.30;61.36;102045.19;126212;1099;104201;-78
2021/11/11 09:37:33;;;;;;;9.90;4.37;;;;;;;9.35;61.11;102039.45;126332;1099;104160;-78
2021/11/11 09:40:07;;;;;;;7.87;4.13;;;;;;;9.44;61.15;102033.92;126241;1098;104316;-79
2021/11/11 09:42:42;;;;;;;7.50;3.87;;;;;;;9.48;60.47;102022.80;126209;1099;104249;-79
2021/11/11 09:45:17;;;;;;;7.20;3.60;;;;;;;9.48;59.19;102027.16;126124;1099;104152;-80
2021/11/11 09:47:50;;;;;;;9.93;3.87;;;;;;;9.47;59.25;102034.12;126255;1099;104220;-78
2021/11/11 09:50:24;;;;;;;8.73;3.80;;;;;;;9.49;59.90;102014.16;126174;1099;104168;-78
2021/11/11 09:52:59;;;;;;;7.93;3.47;;;;;;;9.50;59.13;102017.67;126110;1099;104223;-80
2021/11/11 10:01:06;;;;;;;8.03;3.20;;;;;;;9.64;58.84;102015.93;126187;1099;104169;-80
2021/11/11 10:03:44;;;;;;;6.83;3.00;;;;;;;9.69;57.76;101996.15;126030;1099;104172;-81
2021/11/11 10:06:23;;;;;;;7.70;3.40;;;;;;;9.74;58.74;101997.37;126032;1099;104272;-78
2021/11/11 10:08:59;;;;;;;6.93;3.47;;;;;;;9.75;56.74;101995.64;126028;1099;104252;-78
2021/11/11 10:11:36;;;;;;;7.40;3.13;;;;;;;9.80;56.77;101978.48;125988;1099;104270;-78
2021/11/11 10:14:14;;;;;;;5.63;3.20;;;;;;;9.84;58.00;101986.63;126055;1099;104205;-79
2021/11/11 10:16:49;;;;;;;6.47;3.13;;;;;;;9.88;57.99;101974.64;126022;1099;104399;-79
2021/11/11 10:19:31;;;;;;;6.43;3.10;;;;;;;9.93;58.05;101975.82;125998;1099;104720;-79
2021/11/11 10:22:07;;;;;;;6.43;2.87;;;;;;;9.90;56.10;101962.52;126048;1099;104405;-80
2021/11/11 10:24:44;;;;;;;7.30;3.37;;;;;;;9.90;56.62;101976.52;125249;1101;104227;-78
2021/11/11 10:27:31;;;;;;;7.23;3.40;;;;;;;9.95;56.25;101971.56;125183;1099;104249;-80
2021/11/11 10:30:06;;;;;;;9.10;3.47;;;;;;;9.96;55.57;101973.39;125181;1102;104207;-79
2021/11/11 10:32:46;;;;;;;9.60;3.33;;;;;;;10.00;55.16;101959.66;125184;1099;104396;-80
2021/11/11 10:35:24;;;;;;;9.83;3.60;;;;;;;10.00;56.28;101962.29;125837;1099;104566;-79
2021/11/11 10:37:58;;;;;;;7.23;3.60;;;;;;;10.02;55.02;101964.97;125116;1102;104300;-77
2021/11/11 10:40:38;;;;;;;11.23;3.63;;;;;;;9.97;54.28;101953.30;125233;1099;104258;-79
2021/11/11 10:43:11;;;;;;;7.83;3.33;;;;;;;9.99;55.67;101968.33;125320;1099;104252;-80
2021/11/11 10:45:51;;;;;;;5.03;3.20;;;;;;;9.98;55.25;101952.50;125263;1099;104139;-78
2021/11/11 10:48:27;;;;;;;9.53;3.30;;;;;;;10.01;55.73;101947.45;125434;1099;104299;-78
2021/11/11 10:51:07;;;;;;;9.20;3.90;;;;;;;10.03;55.79;101946.70;126155;1098;104188;-79
2021/11/11 10:53:45;;;;;;;6.07;3.30;;;;;;;10.07;55.47;101945.20;126211;1099;104207;-82
2021/11/11 10:56:19;;;;;;;6.80;3.50;;;;;;;10.08;54.25;101945.30;126227;1099;104201;-79
2021/11/11 10:58:57;;;;;;;7.23;3.40;;;;;;;10.12;55.44;101934.98;126251;1099;104243;-79
2021/11/11 11:01:32;;;;;;;5.13;3.10;;;;;;;10.08;54.50;101933.88;126281;1099;104312;-78
2021/11/11 11:04:06;;;;;;;7.00;3.20;;;;;;;10.05;54.08;101918.88;126184;1099;104169;-79
2021/11/11 11:06:46;;;;;;;8.13;3.00;;;;;;;10.08;54.65;101931.25;126171;1099;110896;-80
2021/11/11 11:09:22;;;;;;;5.87;2.83;;;;;;;10.06;53.15;101928.53;126002;1099;104185;-81
2021/11/11 11:11:53;;;;;;;4.15;2.50;;;;;;;10.08;54.46;101924.31;125829;1099;104667;-77
2021/11/11 11:14:26;;;;;;;8.80;3.10;;;;;;;10.09;54.03;101925.20;125713;1099;104316;-76
2021/11/11 11:20:28;;;;;;;8.10;3.10;;;;;;;10.10;53.81;101912.98;125243;1102;104210;-79
2021/11/11 11:23:17;;;;;;;6.80;2.85;;;;;;;10.05;50.96;101899.59;126050;1098;104217;-80
2021/11/11 11:26:02;;;;;;;6.83;3.03;;;;;;;10.03;52.71;101901.23;125948;1097;104252;-79
2021/11/11 11:29:00;;;;;;;7.35;2.70;;;;;;;10.01;50.15;101890.64;125886;1099;104303;-81
2021/11/11 11:31:42;;;;;;;6.57;2.90;;;;;;;10.02;52.43;101886.30;126075;1099;104137;-79
2021/11/11 11:34:21;;;;;;;6.17;3.13;;;;;;;10.04;51.17;101877.72;125921;1099;104233;-80
2021/11/11 11:36:57;;;;;;;7.20;3.00;;;;;;;10.03;50.02;101875.00;126105;1099;102774;-80
2021/11/11 11:39:33;;;;;;;7.47;3.07;;;;;;;10.04;51.31;101863.72;126030;1098;104142;-79
2021/11/11 11:42:08;;;;;;;5.80;2.87;;;;;;;10.07;51.94;101866.52;126022;1098;104165;-80
2021/11/11 11:44:46;;;;;;;9.77;3.20;;;;;;;10.09;51.67;101862.27;126033;1099;104433;-81
2021/11/11 11:50:12;;;;;;;9.00;2.77;;;;;;;10.13;51.60;101837.11;126252;1099;101694;-81
2021/11/11 11:52:48;;;;;;;7.00;2.80;;;;;;;10.15;52.00;101841.64;126147;1099;104142;-81
2021/11/11 11:55:26;;;;;;;6.00;2.60;;;;;;;10.16;51.15;101826.80;126233;1098;104730;-80
2021/11/11 11:58:03;;;;;;;5.07;2.60;;;;;;;10.14;50.74;101828.44;126080;1099;104335;-83
2021/11/11 12:01:09;;;;;;;4.10;2.43;;;;;;;10.11;49.88;101821.28;125997;1099;104245;-81
2021/11/11 12:03:52;;;;;;;4.83;2.43;;;;;;;10.11;51.02;101820.39;126186;1099;104188;-79
2021/11/11 12:06:40;;;;;;;5.40;2.60;;;;;;;10.09;49.77;101809.80;126167;1098;105521;-80
2021/11/11 12:09:24;;;;;;;4.07;2.60;;;;;;;10.10;49.93;101811.62;126108;1099;104252;-78